createdAt,value
2019-02-19T00:03:03.405Z,57.14
2019-02-19T00:08:10.600Z,56.29
2019-02-19T00:10:39.230Z,56.02
2019-02-19T00:13:07.873Z,54.90
2019-02-19T00:15:36.496Z,54.78
2019-02-19T00:18:05.147Z,55.23
2019-02-19T00:20:33.785Z,55.59
2019-02-19T00:23:02.435Z,55.33
2019-02-19T00:25:31.332Z,55.05
2019-02-19T00:27:59.966Z,55.17
2019-02-19T00:33:07.433Z,54.67
2019-02-19T00:35:36.061Z,54.90
2019-02-19T00:38:06.356Z,55.03
2019-02-19T00:40:33.348Z,54.90
2019-02-19T00:43:02.000Z,55.02
2019-02-19T00:48:09.525Z,55.27
2019-02-19T00:50:38.144Z,55.40
2019-02-19T00:53:06.805Z,55.28
2019-02-19T00:55:35.742Z,54.84
2019-02-19T00:58:04.388Z,54.75
2019-02-19T01:00:33.315Z,54.63
2019-02-19T01:03:02.307Z,55.02
2019-02-19T01:08:09.518Z,55.29
2019-02-19T01:10:38.488Z,56.03
2019-02-19T01:13:07.485Z,56.43
2019-02-19T01:15:36.111Z,56.62
2019-02-19T01:18:05.049Z,56.63
2019-02-19T01:20:33.697Z,56.81
2019-02-19T01:23:02.352Z,56.97
2019-02-19T01:28:09.842Z,56.48
2019-02-19T01:30:38.821Z,56.18
2019-02-19T01:33:07.818Z,56.38
2019-02-19T01:35:36.875Z,56.62
2019-02-19T01:38:05.520Z,56.78
2019-02-19T01:40:34.511Z,57.13
2019-02-19T01:43:03.174Z,57.42
2019-02-19T01:48:10.373Z,58.24
2019-02-19T01:50:39.353Z,58.49
2019-02-19T01:53:08.000Z,58.63
2019-02-19T01:55:36.646Z,58.31
2019-02-19T01:58:05.603Z,58.58
2019-02-19T02:00:34.497Z,58.06
2019-02-19T02:03:03.490Z,58.15
2019-02-19T02:08:10.992Z,57.69
2019-02-19T02:10:39.976Z,57.48
2019-02-19T02:13:08.633Z,57.87
2019-02-19T02:15:42.763Z,57.74
2019-02-19T02:18:05.919Z,57.74
2019-02-19T02:20:34.944Z,57.68
2019-02-19T02:23:03.920Z,58.06
2019-02-19T02:28:11.430Z,57.66
2019-02-19T02:30:40.059Z,58.27
2019-02-19T02:33:08.713Z,58.27
2019-02-19T02:35:37.692Z,58.41
2019-02-19T02:38:06.523Z,58.16
2019-02-19T02:40:35.164Z,58.30
2019-02-19T02:43:03.805Z,58.43
2019-02-19T02:45:32.736Z,58.82
2019-02-19T02:48:01.721Z,58.89
2019-02-19T02:50:30.389Z,58.73
2019-02-19T02:52:59.013Z,59.10
2019-02-19T02:55:27.671Z,59.10
2019-02-19T02:57:56.305Z,59.38
2019-02-19T03:00:25.230Z,59.61
2019-02-19T03:02:53.872Z,59.93
2019-02-19T03:05:22.511Z,60.13
2019-02-19T03:07:51.495Z,60.23
2019-02-19T03:10:20.145Z,60.61
2019-02-19T03:12:49.069Z,60.77
2019-02-19T03:15:18.068Z,61.72
2019-02-19T03:17:46.713Z,61.72
2019-02-19T03:20:15.353Z,61.30
2019-02-19T03:22:44.001Z,61.29
2019-02-19T03:25:12.998Z,61.78
2019-02-19T03:27:41.631Z,62.16
2019-02-19T03:30:10.327Z,62.59
2019-02-19T03:32:38.933Z,62.44
2019-02-19T03:35:07.584Z,62.16
2019-02-19T03:37:36.530Z,61.71
2019-02-19T03:40:07.447Z,61.26
2019-02-19T03:42:33.813Z,61.29
2019-02-19T03:45:02.490Z,60.87
2019-02-19T03:47:31.105Z,60.87
2019-02-19T03:50:00.029Z,60.69
2019-02-19T03:52:28.946Z,61.49
2019-02-19T03:54:57.940Z,61.83
2019-02-19T03:57:26.575Z,61.60
2019-02-19T03:59:55.229Z,61.28
2019-02-19T04:02:23.863Z,61.28
2019-02-19T04:04:52.509Z,62.05
2019-02-19T04:07:21.145Z,62.35
2019-02-19T04:09:50.134Z,62.26
2019-02-19T04:12:18.776Z,62.13
2019-02-19T04:14:47.384Z,62.39
2019-02-19T04:17:16.031Z,62.74
2019-02-19T04:19:44.665Z,62.74
2019-02-19T04:22:13.313Z,62.89
2019-02-19T04:24:41.954Z,62.77
2019-02-19T04:27:10.589Z,63.00
2019-02-19T04:29:39.258Z,62.97
2019-02-19T04:32:07.893Z,63.05
2019-02-19T04:34:36.872Z,63.05
2019-02-19T04:37:05.520Z,63.19
2019-02-19T04:39:34.187Z,63.19
2019-02-19T04:42:02.808Z,62.85
2019-02-19T04:44:31.452Z,62.78
2019-02-19T04:47:00.454Z,63.64
2019-02-19T04:49:29.046Z,63.64
2019-02-19T04:51:57.970Z,63.76
2019-02-19T04:54:26.597Z,63.85
2019-02-19T04:56:55.249Z,64.08
2019-02-19T04:59:24.225Z,65.30
2019-02-19T05:01:52.881Z,64.98
2019-02-19T05:04:21.504Z,65.16
2019-02-19T05:06:50.484Z,65.04
2019-02-19T05:09:19.473Z,65.22
2019-02-19T05:11:48.113Z,65.25
2019-02-19T05:14:16.765Z,65.38
2019-02-19T05:16:45.410Z,64.99
2019-02-19T05:19:14.044Z,64.99
2019-02-19T05:21:42.698Z,65.22
2019-02-19T05:24:11.341Z,65.86
2019-02-19T05:26:39.988Z,66.15
2019-02-19T05:29:08.598Z,66.06
2019-02-19T05:31:37.235Z,66.02
2019-02-19T05:34:06.212Z,65.89
2019-02-19T05:36:34.859Z,65.92
2019-02-19T05:39:03.515Z,65.97
2019-02-19T05:41:32.160Z,65.78
2019-02-19T05:46:39.385Z,65.19
2019-02-19T05:49:08.352Z,65.01
2019-02-19T05:51:36.987Z,64.62
2019-02-19T05:54:05.621Z,-1.00
2019-02-19T05:56:34.243Z,64.18
2019-02-19T05:59:03.189Z,64.36
2019-02-19T06:01:31.862Z,64.37
2019-02-19T06:06:39.070Z,63.99
2019-02-19T06:09:07.723Z,63.31
2019-02-19T06:11:36.773Z,62.92
2019-02-19T06:14:05.423Z,62.92
2019-02-19T06:16:34.210Z,63.87
2019-02-19T06:19:02.845Z,63.87
2019-02-19T06:21:31.506Z,63.77
2019-02-19T06:24:00.167Z,64.08
2019-02-19T06:26:29.018Z,63.83
2019-02-19T06:28:57.925Z,64.10
2019-02-19T06:31:26.309Z,63.77
2019-02-19T06:33:54.936Z,63.75
2019-02-19T06:36:23.558Z,63.73
2019-02-19T06:41:30.774Z,63.63
2019-02-19T06:43:59.446Z,63.85
2019-02-19T06:46:28.361Z,63.83
2019-02-19T06:48:57.103Z,63.96
2019-02-19T06:51:25.720Z,63.63
2019-02-19T06:53:54.637Z,64.00
2019-02-19T06:56:23.283Z,64.56
2019-02-19T07:01:30.473Z,63.89
2019-02-19T07:03:59.148Z,63.97
2019-02-19T07:06:27.769Z,63.97
2019-02-19T07:08:56.428Z,63.58
2019-02-19T07:11:25.329Z,63.48
2019-02-19T07:13:53.975Z,63.33
2019-02-19T07:16:22.611Z,63.31
2019-02-19T07:21:29.814Z,63.38
2019-02-19T07:24:04.365Z,63.43
2019-02-19T07:26:27.149Z,63.59
2019-02-19T07:28:55.798Z,63.91
2019-02-19T07:31:24.428Z,63.36
2019-02-19T07:36:31.637Z,63.43
2019-02-19T07:39:00.281Z,63.31
2019-02-19T07:41:28.917Z,63.15
2019-02-19T07:43:57.563Z,63.01
2019-02-19T07:46:26.211Z,62.90
2019-02-19T07:48:54.843Z,63.12
2019-02-19T07:51:23.495Z,63.38
2019-02-19T07:56:30.693Z,62.91
2019-02-19T07:58:59.344Z,62.94
2019-02-19T08:01:27.980Z,62.72
2019-02-19T08:03:56.610Z,62.59
2019-02-19T08:06:25.559Z,62.42
2019-02-19T08:08:54.223Z,62.42
2019-02-19T08:11:22.858Z,62.62
2019-02-19T08:16:30.093Z,62.67
2019-02-19T08:18:58.739Z,62.77
2019-02-19T08:21:27.374Z,63.25
2019-02-19T08:23:56.018Z,62.92
2019-02-19T08:26:24.976Z,62.61
2019-02-19T08:31:32.480Z,63.08
2019-02-19T08:34:01.145Z,63.62
2019-02-19T08:36:29.928Z,63.62
2019-02-19T08:38:58.475Z,63.65
2019-02-19T08:41:27.095Z,63.97
2019-02-19T08:43:55.998Z,63.82
2019-02-19T08:46:24.991Z,63.58
2019-02-19T08:48:53.625Z,63.61
2019-02-19T08:51:22.270Z,63.95
2019-02-19T08:56:29.847Z,64.31
2019-02-19T08:58:58.480Z,64.42
2019-02-19T09:01:27.125Z,64.33
2019-02-19T09:03:55.757Z,64.40
2019-02-19T09:06:24.403Z,64.62
2019-02-19T09:11:31.630Z,64.64
2019-02-19T09:14:00.265Z,64.28
2019-02-19T09:16:28.922Z,64.07
2019-02-19T09:18:57.846Z,63.73
2019-02-19T09:21:26.507Z,63.23
2019-02-19T09:23:55.160Z,63.40
2019-02-19T09:26:24.104Z,63.75
2019-02-19T09:31:31.319Z,63.33
2019-02-19T09:33:59.951Z,63.48
2019-02-19T09:36:28.980Z,63.81
2019-02-19T09:38:57.630Z,63.65
2019-02-19T09:41:26.331Z,64.15
2019-02-19T09:43:54.931Z,64.28
2019-02-19T09:46:23.917Z,64.55
2019-02-19T09:51:31.130Z,64.92
2019-02-19T09:53:59.773Z,64.70
2019-02-19T09:56:28.409Z,64.54
2019-02-19T09:58:57.381Z,64.74
2019-02-19T10:01:28.205Z,64.64
2019-02-19T10:03:55.008Z,64.65
2019-02-19T10:06:23.943Z,64.54
2019-02-19T10:11:31.509Z,65.52
2019-02-19T10:14:00.150Z,65.50
2019-02-19T10:16:28.790Z,66.15
2019-02-19T10:18:57.419Z,66.25
2019-02-19T10:21:26.075Z,66.55
2019-02-19T10:23:54.685Z,67.01
2019-02-19T10:26:23.331Z,67.36
2019-02-19T10:31:30.581Z,68.83
2019-02-19T10:33:59.204Z,69.33
2019-02-19T10:36:28.214Z,69.68
2019-02-19T10:38:56.863Z,70.34
2019-02-19T10:41:25.790Z,71.46
2019-02-19T10:43:54.674Z,71.71
2019-02-19T10:46:23.339Z,72.03
2019-02-19T10:51:30.552Z,72.91
2019-02-19T10:53:59.173Z,72.46
2019-02-19T10:56:28.134Z,72.91
2019-02-19T10:58:57.126Z,72.80
2019-02-19T11:01:25.781Z,73.33
2019-02-19T11:03:54.400Z,73.76
2019-02-19T11:06:23.061Z,73.75
2019-02-19T11:11:30.580Z,73.83
2019-02-19T11:13:59.201Z,73.29
2019-02-19T11:16:28.152Z,73.58
2019-02-19T11:18:56.786Z,73.34
2019-02-19T11:21:25.422Z,73.71
2019-02-19T11:23:54.411Z,73.60
2019-02-19T11:26:23.405Z,73.22
2019-02-19T11:28:52.079Z,73.09
2019-02-19T11:31:20.704Z,73.24
2019-02-19T11:36:28.275Z,73.06
2019-02-19T11:38:56.896Z,72.71
2019-02-19T11:41:25.527Z,72.12
2019-02-19T11:43:54.161Z,72.50
2019-02-19T11:46:23.130Z,72.92
2019-02-19T11:48:52.100Z,72.66
2019-02-19T11:51:20.765Z,72.34
2019-02-19T11:56:27.959Z,70.79
2019-02-19T11:58:56.602Z,71.12
2019-02-19T12:01:25.245Z,70.85
2019-02-19T12:03:53.884Z,70.53
2019-02-19T12:06:22.544Z,69.76
2019-02-19T12:11:29.776Z,69.87
2019-02-19T12:13:58.403Z,69.69
2019-02-19T12:16:27.059Z,69.68
2019-02-19T12:18:55.706Z,69.67
2019-02-19T12:21:24.685Z,69.63
2019-02-19T12:23:53.645Z,69.23
2019-02-19T12:26:22.296Z,68.64
2019-02-19T12:31:29.520Z,68.17
2019-02-19T12:33:58.155Z,68.85
2019-02-19T12:36:26.815Z,68.78
2019-02-19T12:38:55.461Z,69.03
2019-02-19T12:41:24.471Z,68.52
2019-02-19T12:46:31.671Z,68.62
2019-02-19T12:49:00.305Z,67.89
2019-02-19T12:51:28.949Z,68.16
2019-02-19T12:53:57.572Z,67.95
2019-02-19T12:56:26.507Z,67.99
2019-02-19T12:58:55.137Z,67.73
2019-02-19T13:01:23.866Z,67.89
2019-02-19T13:03:52.870Z,67.80
2019-02-19T13:06:21.861Z,68.39
2019-02-19T13:11:29.101Z,68.09
2019-02-19T13:13:57.736Z,67.99
2019-02-19T13:16:26.730Z,67.38
2019-02-19T13:19:03.193Z,66.87
2019-02-19T13:21:24.715Z,66.42
2019-02-19T13:26:32.288Z,64.76
2019-02-19T13:29:01.214Z,64.82
2019-02-19T13:31:30.029Z,65.28
2019-02-19T13:33:58.685Z,65.23
2019-02-19T13:36:27.342Z,64.60
2019-02-19T13:38:55.987Z,64.24
2019-02-19T13:41:24.636Z,64.01
2019-02-19T13:46:32.139Z,63.68
2019-02-19T13:49:00.775Z,63.97
2019-02-19T13:51:29.418Z,63.90
2019-02-19T13:53:58.406Z,64.11
2019-02-19T13:56:27.040Z,64.72
2019-02-19T14:01:43.881Z,63.43
2019-02-19T14:04:12.524Z,63.25
2019-02-19T14:06:41.478Z,63.12
2019-02-19T14:09:10.097Z,63.45
2019-02-19T14:11:38.755Z,61.49
2019-02-19T14:14:07.401Z,61.36
2019-02-19T14:16:36.316Z,61.33
2019-02-19T14:19:04.953Z,60.57
2019-02-19T14:21:33.585Z,60.95
2019-02-19T14:24:02.569Z,61.15
2019-02-19T14:26:31.224Z,60.36
2019-02-19T14:28:59.885Z,60.22
2019-02-19T14:31:28.509Z,60.49
2019-02-19T14:33:57.515Z,60.26
2019-02-19T14:36:46.870Z,60.69
2019-02-19T14:39:15.395Z,60.47
2019-02-19T14:41:44.036Z,60.59
2019-02-19T14:44:12.663Z,60.65
2019-02-19T14:46:41.310Z,60.46
2019-02-19T14:49:11.122Z,59.93
2019-02-19T14:51:39.773Z,60.13
2019-02-19T14:54:08.406Z,61.48
2019-02-19T14:56:37.052Z,61.18
2019-02-19T14:59:05.710Z,61.62
2019-02-19T15:01:34.658Z,61.88
2019-02-19T15:04:03.542Z,61.33
2019-02-19T15:06:32.520Z,61.75
2019-02-19T15:09:01.173Z,62.25
2019-02-19T15:11:29.785Z,62.89
2019-02-19T15:13:58.679Z,63.21
2019-02-19T15:16:27.565Z,63.58
2019-02-19T15:18:56.204Z,64.26
2019-02-19T15:21:25.600Z,63.80
2019-02-19T15:23:53.831Z,64.13
2019-02-19T15:26:22.717Z,64.00
2019-02-19T15:31:29.986Z,64.19
2019-02-19T15:33:58.623Z,64.32
2019-02-19T15:36:27.263Z,64.42
2019-02-19T15:38:55.917Z,64.07
2019-02-19T15:41:24.857Z,64.36
2019-02-19T15:46:32.045Z,65.12
2019-02-19T15:49:00.695Z,65.35
2019-02-19T15:51:29.384Z,65.29
2019-02-19T15:53:58.046Z,65.10
2019-02-19T15:56:26.692Z,65.25
2019-02-19T15:58:55.709Z,65.12
2019-02-19T16:01:24.678Z,65.33
2019-02-19T16:06:31.898Z,65.46
2019-02-19T16:09:00.556Z,65.65
2019-02-19T16:11:29.183Z,65.22
2019-02-19T16:13:57.832Z,65.54
2019-02-19T16:16:26.469Z,65.89
2019-02-19T16:18:55.124Z,66.02
2019-02-19T16:21:23.772Z,66.40
2019-02-19T16:26:31.317Z,66.77
2019-02-19T16:29:00.302Z,67.11
2019-02-19T16:31:29.256Z,67.10
2019-02-19T16:33:57.930Z,67.47
2019-02-19T16:36:26.934Z,67.84
2019-02-19T16:38:55.596Z,68.28
2019-02-19T16:41:24.242Z,68.10
2019-02-19T16:43:52.875Z,68.51
2019-02-19T16:46:21.506Z,68.56
2019-02-19T16:51:28.732Z,69.04
2019-02-19T16:53:57.441Z,69.36
2019-02-19T16:56:26.381Z,69.50
2019-02-19T16:58:55.033Z,69.86
2019-02-19T17:01:23.790Z,69.45
2019-02-19T17:03:52.694Z,69.76
2019-02-19T17:06:21.447Z,69.49
2019-02-19T17:08:50.359Z,69.52
2019-02-19T17:11:18.993Z,68.77
2019-02-19T17:13:47.793Z,68.84
2019-02-19T17:16:16.416Z,68.62
2019-02-19T17:18:45.078Z,69.06
2019-02-19T17:21:13.878Z,68.97
2019-02-19T17:23:43.851Z,68.77
2019-02-19T17:26:11.116Z,68.63
2019-02-19T17:28:39.769Z,69.00
2019-02-19T17:31:08.661Z,68.66
2019-02-19T17:33:37.332Z,68.60
2019-02-19T17:36:05.960Z,69.03
2019-02-19T17:38:34.636Z,69.14
2019-02-19T17:41:03.269Z,69.23
2019-02-19T17:43:31.914Z,69.60
2019-02-19T17:46:00.536Z,69.82
2019-02-19T17:48:29.181Z,69.58
2019-02-19T17:50:57.826Z,69.20
2019-02-19T17:53:26.719Z,68.88
2019-02-19T17:55:55.780Z,69.03
2019-02-19T17:58:24.530Z,69.11
2019-02-19T18:03:31.733Z,69.57
2019-02-19T18:06:00.654Z,69.54
2019-02-19T18:08:29.293Z,69.76
2019-02-19T18:10:57.925Z,69.59
2019-02-19T18:13:26.610Z,70.03
2019-02-19T18:15:57.536Z,69.99
2019-02-19T18:18:24.130Z,69.85
2019-02-19T18:20:52.762Z,70.13
2019-02-19T18:23:21.394Z,70.21
2019-02-19T18:25:50.079Z,70.15
2019-02-19T18:28:18.714Z,70.54
2019-02-19T18:30:47.355Z,70.52
2019-02-19T18:33:16.277Z,70.52
2019-02-19T18:35:44.924Z,70.87
2019-02-19T18:38:13.577Z,70.81
2019-02-19T18:40:42.232Z,70.90
2019-02-19T18:43:10.862Z,71.01
2019-02-19T18:45:39.511Z,71.15
2019-02-19T18:48:08.136Z,70.73
2019-02-19T18:50:36.771Z,71.32
2019-02-19T18:53:05.416Z,71.55
2019-02-19T18:55:34.065Z,71.42
2019-02-19T18:58:03.021Z,71.42
2019-02-19T19:00:31.665Z,72.22
2019-02-19T19:03:00.359Z,72.22
2019-02-19T19:05:29.301Z,72.16
2019-02-19T19:07:57.945Z,72.52
2019-02-19T19:10:26.701Z,72.64
2019-02-19T19:12:55.635Z,72.93
2019-02-19T19:15:24.406Z,73.01
2019-02-19T19:17:53.024Z,73.07
2019-02-19T19:20:21.664Z,73.97
2019-02-19T19:22:50.291Z,73.97
2019-02-19T19:25:18.953Z,74.13
2019-02-19T19:27:47.585Z,74.44
2019-02-19T19:30:16.530Z,74.56
2019-02-19T19:32:45.168Z,75.17
2019-02-19T19:35:13.822Z,75.17
2019-02-19T19:37:42.782Z,75.23
2019-02-19T19:40:11.454Z,75.85
2019-02-19T19:42:40.349Z,75.85
2019-02-19T19:45:09.006Z,75.60
2019-02-19T19:47:37.926Z,75.76
2019-02-19T19:50:06.590Z,75.86
2019-02-19T19:52:35.204Z,75.99
2019-02-19T19:55:04.204Z,76.14
2019-02-19T19:57:32.857Z,76.05
2019-02-19T20:00:01.473Z,76.11
2019-02-19T20:02:30.083Z,76.26
2019-02-19T20:04:59.026Z,76.11
2019-02-19T20:07:28.018Z,76.41
2019-02-19T20:09:57.009Z,76.50
2019-02-19T20:12:25.656Z,76.83
2019-02-19T20:14:54.343Z,76.79
2019-02-19T20:17:22.958Z,77.04
2019-02-19T20:19:51.947Z,76.97
2019-02-19T20:22:20.940Z,77.28
2019-02-19T20:24:49.586Z,77.07
2019-02-19T20:27:18.513Z,77.02
2019-02-19T20:29:47.144Z,76.89
2019-02-19T20:32:15.764Z,77.03
2019-02-19T20:34:44.771Z,76.85
2019-02-19T20:37:13.490Z,77.07
2019-02-19T20:39:42.116Z,77.07
2019-02-19T20:42:10.749Z,77.05
2019-02-19T20:44:39.719Z,77.11
2019-02-19T20:47:08.333Z,76.83
2019-02-19T20:49:36.962Z,76.59
2019-02-19T20:52:06.082Z,76.94
2019-02-19T20:54:35.059Z,77.10
2019-02-19T20:57:04.051Z,77.04
2019-02-19T20:59:33.037Z,77.20
2019-02-19T21:02:01.773Z,77.34
2019-02-19T21:04:30.422Z,77.38
2019-02-19T21:06:59.083Z,76.73
2019-02-19T21:09:28.086Z,76.73
2019-02-19T21:11:57.106Z,77.07
2019-02-19T21:14:26.069Z,77.18
2019-02-19T21:16:54.738Z,76.96
2019-02-19T21:19:23.345Z,77.12
2019-02-19T21:21:52.066Z,77.01
2019-02-19T21:24:20.667Z,76.64
2019-02-19T21:26:49.295Z,76.68
2019-02-19T21:29:17.931Z,76.60
2019-02-19T21:31:46.848Z,76.74
2019-02-19T21:34:15.475Z,76.80
2019-02-19T21:36:44.118Z,76.50
2019-02-19T21:39:13.038Z,76.38
2019-02-19T21:41:41.682Z,76.09
2019-02-19T21:44:10.615Z,76.07
2019-02-19T21:46:41.151Z,75.90
2019-02-19T21:49:07.885Z,76.09
2019-02-19T21:51:36.529Z,75.87
2019-02-19T21:54:05.154Z,75.51
2019-02-19T21:56:33.798Z,75.90
2019-02-19T21:59:02.423Z,76.08
2019-02-19T22:01:31.376Z,76.12
2019-02-19T22:04:00.005Z,75.84
2019-02-19T22:06:28.640Z,75.87
2019-02-19T22:08:57.274Z,76.08
2019-02-19T22:11:25.948Z,76.15
2019-02-19T22:13:54.509Z,76.38
2019-02-19T22:16:23.481Z,76.32
2019-02-19T22:21:30.981Z,76.08
2019-02-19T22:23:59.972Z,76.37
2019-02-19T22:26:28.620Z,76.59
2019-02-19T22:28:57.257Z,76.76
2019-02-19T22:31:26.224Z,76.47
2019-02-19T22:33:55.111Z,76.24
2019-02-19T22:36:23.756Z,76.32
2019-02-19T22:38:52.417Z,76.05
2019-02-19T22:41:21.070Z,76.10
2019-02-19T22:46:28.511Z,76.11
2019-02-19T22:48:57.133Z,76.16
2019-02-19T22:51:25.800Z,75.82
2019-02-19T22:53:54.428Z,76.02
2019-02-19T22:56:23.070Z,75.54
2019-02-19T23:01:30.272Z,75.52
2019-02-19T23:03:58.913Z,75.64
2019-02-19T23:06:27.566Z,75.51
2019-02-19T23:08:56.203Z,75.07
2019-02-19T23:11:24.847Z,75.40
2019-02-19T23:16:32.042Z,75.34
2019-02-19T23:19:00.664Z,75.23
2019-02-19T23:21:29.309Z,74.97
2019-02-19T23:23:57.946Z,75.09
2019-02-19T23:26:26.577Z,75.04
2019-02-19T23:28:55.197Z,74.85
2019-02-19T23:31:23.879Z,74.53
2019-02-19T23:36:31.417Z,74.12
2019-02-19T23:39:00.061Z,74.19
2019-02-19T23:41:28.710Z,74.42
2019-02-19T23:43:57.349Z,74.47
2019-02-19T23:46:25.986Z,74.55
2019-02-19T23:48:54.615Z,74.56
2019-02-19T23:51:23.540Z,74.81
2019-02-19T23:53:52.171Z,74.66
2019-02-19T23:56:20.827Z,75.04
